Time;durP1;ratioP1;P1;durP2;ratioP2;P2;SDS_P1;SDS_P2;PMS_P1;PMS_P2;Temp;Humidity;BMP_temperature;BMP_pressure;BME280_temperature;BME280_humidity;BME280_pressure;Samples;Min_cycle;Max_cycle;Signal;HPM_P1;HPM_P2
2022/11/11 00:01:12;;;;;;;6.72;1.88;;;14.80;99.90;;;;;;4860048;29;20053;-59
2022/11/11 00:03:39;;;;;;;5.65;1.88;;;14.80;99.90;;;;;;4861176;29;20079;-59
2022/11/11 00:06:14;;;;;;;8.30;2.20;;;14.70;99.90;;;;;;4844741;29;20056;-59
2022/11/11 00:08:41;;;;;;;4.05;1.70;;;14.80;99.90;;;;;;4860513;29;20101;-59
2022/11/11 00:11:10;;;;;;;5.82;2.05;;;14.80;99.90;;;;;;4861797;29;20105;-59
2022/11/11 00:13:38;;;;;;;4.88;1.95;;;14.80;99.90;;;;;;4860960;29;20045;-58
2022/11/11 00:16:06;;;;;;;4.25;1.95;;;14.80;99.90;;;;;;4844974;29;20389;-58
2022/11/11 00:26:39;;;;;;;7.40;2.58;;;14.90;99.90;;;;;;4859563;29;20075;-59
2022/11/11 00:29:06;;;;;;;4.82;2.10;;;14.90;99.90;;;;;;4860824;29;20053;-58
2022/11/11 00:31:34;;;;;;;8.32;2.63;;;14.90;99.90;;;;;;4860301;29;20117;-59
2022/11/11 00:34:01;;;;;;;7.53;2.30;;;14.90;99.90;;;;;;4859474;29;20071;-59
2022/11/11 00:36:28;;;;;;;3.53;1.63;;;14.90;99.90;;;;;;4860751;29;20141;-59
2022/11/11 00:38:57;;;;;;;5.63;2.30;;;14.90;99.90;;;;;;4863410;29;20072;-59
2022/11/11 00:41:25;;;;;;;5.75;2.60;;;14.90;99.90;;;;;;4863913;29;20080;-59
2022/11/11 00:43:53;;;;;;;5.15;1.90;;;14.90;99.90;;;;;;4864479;29;20155;-59
2022/11/11 00:51:50;;;;;;;6.93;2.00;;;14.90;99.90;;;;;;4864477;29;20109;-58
2022/11/11 00:54:17;;;;;;;4.97;2.38;;;15.00;99.90;;;;;;4863950;29;20128;-59
2022/11/11 00:56:44;;;;;;;5.88;2.20;;;15.00;99.90;;;;;;4863095;29;20081;-59
2022/11/11 00:59:11;;;;;;;5.30;1.65;;;15.00;99.90;;;;;;4863854;29;20106;-59
2022/11/11 01:01:38;;;;;;;5.00;1.75;;;15.00;99.90;;;;;;4864094;29;20049;-59
2022/11/11 01:04:05;;;;;;;6.57;2.05;;;15.00;99.90;;;;;;4864653;29;20109;-58
2022/11/11 01:06:32;;;;;;;5.90;2.50;;;15.00;99.90;;;;;;4863778;29;20082;-59
2022/11/11 01:09:04;;;;;;;3.80;1.80;;;15.00;99.90;;;;;;4863801;29;20132;-59
2022/11/11 01:11:31;;;;;;;4.25;1.92;;;15.00;99.90;;;;;;4864574;29;20050;-59
2022/11/11 01:13:58;;;;;;;4.22;1.80;;;15.00;99.90;;;;;;4863585;29;20136;-59
2022/11/11 01:16:25;;;;;;;11.10;2.40;;;15.00;99.90;;;;;;4864615;29;20049;-59
2022/11/11 01:18:52;;;;;;;8.35;2.00;;;15.00;99.90;;;;;;4862518;29;20389;-59
2022/11/11 01:21:21;;;;;;;7.60;2.33;;;15.00;99.90;;;;;;4864426;29;20052;-58
2022/11/11 01:23:48;;;;;;;8.43;2.60;;;15.00;99.90;;;;;;4862640;29;20049;-59
2022/11/11 01:26:17;;;;;;;5.57;1.75;;;15.00;99.90;;;;;;4864252;29;20048;-59
2022/11/11 01:28:44;;;;;;;4.30;1.70;;;15.00;99.90;;;;;;4863257;29;20136;-58
2022/11/11 01:31:13;;;;;;;7.43;1.83;;;15.00;99.90;;;;;;4862836;29;20374;-59
2022/11/11 01:33:40;;;;;;;15.63;3.05;;;15.10;99.90;;;;;;4862082;29;20046;-59
2022/11/11 01:36:15;;;;;;;8.25;2.10;;;15.00;99.90;;;;;;4863157;29;20042;-59
2022/11/11 01:38:42;;;;;;;8.85;2.28;;;15.10;99.90;;;;;;4862316;29;20045;-59
2022/11/11 01:43:59;;;;;;;;;;;15.10;99.90;;;;;;4864592;29;20073;-59
2022/11/11 01:46:37;;;;;;;5.57;1.98;;;15.00;99.90;;;;;;4863417;29;19927;-59
2022/11/11 01:49:22;;;;;;;9.43;2.65;;;15.00;99.90;;;;;;4861234;29;20041;-58
2022/11/11 01:52:07;;;;;;;7.22;2.03;;;15.00;99.90;;;;;;4862996;29;20473;-57
2022/11/11 01:54:58;;;;;;;6.18;2.00;;;15.00;99.90;;;;;;4863474;29;20542;-58
2022/11/11 01:57:41;;;;;;;6.60;2.50;;;15.00;99.90;;;;;;4849105;29;20139;-59
2022/11/11 02:00:10;;;;;;;5.28;1.50;;;15.00;99.90;;;;;;4862276;29;20058;-58
2022/11/11 02:03:03;;;;;;;3.75;1.70;;;15.00;99.90;;;;;;4861981;29;20061;-59
2022/11/11 02:05:44;;;;;;;3.80;1.75;;;15.00;99.90;;;;;;4863889;29;20144;-58
2022/11/11 02:08:32;;;;;;;4.18;1.60;;;15.00;99.90;;;;;;4861927;29;20057;-58
2022/11/11 02:11:04;;;;;;;6.43;2.10;;;15.00;99.90;;;;;;4862605;29;20045;-59
2022/11/11 02:16:17;;;;;;;3.67;1.70;;;15.00;99.90;;;;;;4862627;29;20050;-58
2022/11/11 02:18:44;;;;;;;5.53;1.67;;;14.90;99.90;;;;;;4861459;29;20136;-58
2022/11/11 02:21:19;;;;;;;4.50;1.48;;;14.90;99.90;;;;;;4861310;29;20045;-58
2022/11/11 02:24:01;;;;;;;7.15;2.35;;;14.90;99.90;;;;;;4847068;29;20098;-59
2022/11/11 02:26:30;;;;;;;5.80;1.95;;;14.90;99.90;;;;;;4862421;29;20049;-58
2022/11/11 02:28:57;;;;;;;3.72;1.40;;;14.90;99.90;;;;;;4845948;29;20481;-59
2022/11/11 02:31:29;;;;;;;6.40;2.22;;;14.90;99.90;;;;;;4861558;29;20132;-57
2022/11/11 02:33:56;;;;;;;4.65;2.05;;;14.90;99.90;;;;;;4861653;29;20049;-58
2022/11/11 02:36:23;;;;;;;6.53;1.73;;;14.90;99.90;;;;;;4862188;29;20050;-57
2022/11/11 02:38:50;;;;;;;4.88;2.10;;;14.90;99.90;;;;;;4862840;29;20157;-58
2022/11/11 02:44:02;;;;;;;8.35;1.92;;;14.90;99.90;;;;;;4862088;29;20140;-57
2022/11/11 02:46:29;;;;;;;5.35;1.70;;;14.90;99.90;;;;;;4861057;29;20144;-58
2022/11/11 02:48:56;;;;;;;5.45;1.80;;;14.90;99.90;;;;;;4862674;29;20081;-57
2022/11/11 02:51:23;;;;;;;3.97;1.77;;;14.90;99.90;;;;;;4861998;29;20061;-59
2022/11/11 02:53:50;;;;;;;5.85;2.15;;;14.90;99.90;;;;;;4862160;29;20053;-58
2022/11/11 02:57:05;;;;;;;5.85;2.28;;;14.90;99.90;;;;;;4861957;29;20054;-57
2022/11/11 02:59:03;;;;;;;5.70;1.63;;;14.90;99.90;;;;;;4862890;29;20468;-58
2022/11/11 03:01:30;;;;;;;4.30;1.60;;;14.90;99.90;;;;;;4861657;29;20074;-58
2022/11/11 03:03:57;;;;;;;6.28;1.60;;;14.90;99.90;;;;;;4860860;29;20137;-58
2022/11/11 03:06:24;;;;;;;6.00;1.98;;;15.00;99.90;;;;;;4861801;29;20470;-58
2022/11/11 03:08:51;;;;;;;4.95;2.15;;;15.00;99.90;;;;;;4861678;29;20053;-58
2022/11/11 03:11:26;;;;;;;7.55;1.80;;;15.00;99.90;;;;;;4861521;29;20041;-59
2022/11/11 03:13:54;;;;;;;3.70;2.30;;;15.00;99.90;;;;;;4861526;29;20046;-59
2022/11/11 03:19:07;;;;;;;8.95;2.17;;;15.00;99.90;;;;;;4862098;29;20058;-59
2022/11/11 03:21:33;;;;;;;7.70;1.90;;;15.00;99.90;;;;;;4862412;29;20050;-59
2022/11/11 03:24:21;;;;;;;6.05;1.70;;;15.00;99.90;;;;;;4861823;29;20454;-59
2022/11/11 03:26:48;;;;;;;5.18;2.15;;;15.00;99.90;;;;;;4862324;29;20113;-59
2022/11/11 03:29:14;;;;;;;8.65;2.20;;;15.00;99.90;;;;;;4861573;29;20071;-59
2022/11/11 03:31:41;;;;;;;5.70;1.73;;;15.00;99.90;;;;;;4860731;29;20474;-59
2022/11/11 03:34:17;;;;;;;4.63;1.90;;;15.00;99.90;;;;;;4861118;29;20500;-58
2022/11/11 03:39:29;;;;;;;7.43;2.03;;;14.90;99.90;;;;;;4861175;29;20091;-59
2022/11/11 03:41:56;;;;;;;3.67;1.70;;;14.90;99.90;;;;;;4861098;29;20049;-59
2022/11/11 03:44:23;;;;;;;4.43;1.98;;;14.90;99.90;;;;;;4861324;29;20077;-59
2022/11/11 03:46:50;;;;;;;10.07;2.65;;;14.90;99.90;;;;;;4861283;29;20057;-59
2022/11/11 03:49:17;;;;;;;4.53;2.17;;;14.80;99.90;;;;;;4861319;29;20074;-58
2022/11/11 03:51:44;;;;;;;9.85;2.58;;;14.80;99.90;;;;;;4861748;29;20133;-59
2022/11/11 03:54:11;;;;;;;6.80;3.20;;;14.80;99.90;;;;;;4861549;29;20092;-59
2022/11/11 03:56:37;;;;;;;6.50;2.67;;;14.80;99.90;;;;;;4861652;29;20428;-59
2022/11/11 03:59:04;;;;;;;6.53;2.22;;;14.80;99.90;;;;;;4861398;29;20042;-58
2022/11/11 04:16:04;;;;;;;10.52;2.97;;;14.60;99.90;;;;;;4860600;29;20041;-58
2022/11/11 04:18:04;;;;;;;6.55;2.08;;;14.60;99.90;;;;;;4860880;29;20394;-59
2022/11/11 04:23:16;;;;;;;6.68;2.22;;;14.60;99.90;;;;;;4861391;29;20049;-59
2022/11/11 04:25:49;;;;;;;6.50;2.10;;;14.60;99.90;;;;;;4860739;29;20454;-59
2022/11/11 04:31:01;;;;;;;8.30;3.17;;;14.50;99.90;;;;;;4861341;29;20053;-58
2022/11/11 04:33:28;;;;;;;7.07;1.85;;;14.50;99.90;;;;;;4861174;29;20046;-58
2022/11/11 04:35:55;;;;;;;5.57;2.08;;;14.40;99.90;;;;;;4860061;29;20389;-59
2022/11/11 04:41:10;;;;;;;5.50;2.25;;;14.40;99.90;;;;;;4861230;29;20109;-58
2022/11/11 04:45:26;;;;;;;9.45;2.75;;;14.40;99.90;;;;;;4860708;29;20383;-58
2022/11/11 04:46:23;;;;;;;7.00;2.13;;;14.40;99.90;;;;;;4861377;29;20109;-57
2022/11/11 04:48:50;;;;;;;5.80;2.65;;;14.30;99.90;;;;;;4860543;29;20053;-58
2022/11/11 04:51:17;;;;;;;5.90;2.40;;;14.30;99.90;;;;;;4860368;29;20478;-59
2022/11/11 04:53:44;;;;;;;8.68;2.42;;;14.30;99.90;;;;;;4860190;29;20046;-58
2022/11/11 04:59:17;;;;;;;10.00;2.10;;;14.30;99.90;;;;;;4861386;29;20113;-57
2022/11/11 05:04:28;;;;;;;6.65;2.70;;;14.20;99.90;;;;;;4860525;29;20453;-57
2022/11/11 05:09:40;;;;;;;7.50;3.08;;;14.20;99.90;;;;;;4860251;29;20045;-57
2022/11/11 05:12:07;;;;;;;10.38;2.70;;;14.20;99.90;;;;;;4860485;29;20045;-58
2022/11/11 05:22:50;;;;;;;11.73;2.88;;;14.10;99.90;;;;;;4859979;29;20097;-58
2022/11/11 05:25:32;;;;;;;15.57;3.50;;;14.20;99.90;;;;;;4863794;29;20050;-59
2022/11/11 05:28:00;;;;;;;8.32;3.15;;;14.10;99.90;;;;;;4863464;29;20063;-58
2022/11/11 05:30:26;;;;;;;10.23;2.85;;;14.20;99.90;;;;;;4863767;29;20098;-58
2022/11/11 05:32:54;;;;;;;12.15;3.50;;;14.10;99.90;;;;;;4863672;29;20477;-57
2022/11/11 05:35:21;;;;;;;8.43;3.47;;;14.20;99.90;;;;;;4863958;29;20101;-58
2022/11/11 05:38:19;;;;;;;8.27;2.92;;;14.20;99.90;;;;;;4863576;29;20057;-58
2022/11/11 05:40:34;;;;;;;10.98;2.65;;;14.10;99.90;;;;;;4863872;29;20077;-58
2022/11/11 05:43:01;;;;;;;11.27;2.90;;;14.10;99.90;;;;;;4863081;29;20102;-58
2022/11/11 05:45:28;;;;;;;10.38;2.80;;;14.10;99.90;;;;;;4863864;29;20053;-57
2022/11/11 05:48:00;;;;;;;9.55;2.92;;;14.10;99.90;;;;;;4863441;29;20041;-58
2022/11/11 05:50:27;;;;;;;11.73;3.53;;;14.10;99.90;;;;;;4863812;29;20057;-57
2022/11/11 05:52:55;;;;;;;12.27;2.83;;;14.20;99.90;;;;;;4862100;29;20088;-59
2022/11/11 05:55:21;;;;;;;13.20;2.95;;;14.20;99.90;;;;;;4863067;29;20045;-59
2022/11/11 05:57:48;;;;;;;8.10;2.90;;;14.10;99.90;;;;;;4862284;29;20054;-57
2022/11/11 06:00:16;;;;;;;16.10;3.55;;;14.10;99.90;;;;;;4864396;29;20411;-58
2022/11/11 06:02:43;;;;;;;9.50;3.88;;;14.20;99.90;;;;;;4862830;29;20474;-57
2022/11/11 06:05:09;;;;;;;8.65;2.47;;;14.20;99.90;;;;;;4863081;29;20045;-59
2022/11/11 06:07:38;;;;;;;10.23;2.78;;;14.20;99.90;;;;;;4862986;29;20081;-56
2022/11/11 06:13:08;;;;;;;10.07;2.65;;;14.10;99.90;;;;;;4863609;29;20049;-58
2022/11/11 06:15:36;;;;;;;11.80;2.63;;;14.10;99.90;;;;;;4862551;29;20045;-58
2022/11/11 06:18:03;;;;;;;9.50;3.03;;;14.10;99.90;;;;;;4862476;29;20470;-58
2022/11/11 06:20:45;;;;;;;9.60;2.80;;;14.10;99.90;;;;;;4864067;29;20106;-59
2022/11/11 06:23:14;;;;;;;7.15;2.80;;;14.10;99.90;;;;;;4863104;29;20102;-58
2022/11/11 06:28:27;;;;;;;8.55;2.97;;;14.20;99.90;;;;;;4862791;29;20058;-58
2022/11/11 06:31:00;;;;;;;7.32;2.35;;;14.20;99.90;;;;;;4862792;29;20068;-59
2022/11/11 06:33:38;;;;;;;10.27;2.90;;;14.20;99.90;;;;;;4864099;29;20050;-58
2022/11/11 06:36:05;;;;;;;8.30;2.55;;;14.20;99.90;;;;;;4861316;29;20045;-57
2022/11/11 06:42:23;;;;;;;8.40;3.00;;;14.30;99.90;;;;;;4862328;29;20235;-58
2022/11/11 06:44:50;;;;;;;11.30;2.75;;;14.30;99.90;;;;;;4865702;29;20041;-58
2022/11/11 06:47:17;;;;;;;9.02;2.80;;;14.30;99.90;;;;;;4862186;29;20053;-57
2022/11/11 06:49:43;;;;;;;8.23;2.67;;;14.30;99.90;;;;;;4863186;29;20113;-58
2022/11/11 06:52:11;;;;;;;8.75;2.10;;;14.40;99.90;;;;;;4860822;29;20104;-58
2022/11/11 06:54:37;;;;;;;10.93;3.28;;;14.40;99.90;;;;;;4862079;29;20049;-59
2022/11/11 06:57:05;;;;;;;9.30;2.40;;;14.50;99.90;;;;;;4860879;29;20054;-57
2022/11/11 06:59:34;;;;;;;5.75;2.58;;;14.50;99.90;;;;;;4861783;29;20129;-58
2022/11/11 07:02:01;;;;;;;6.65;2.75;;;14.50;99.90;;;;;;4862418;29;20074;-57
2022/11/11 07:04:28;;;;;;;8.07;2.03;;;14.50;99.90;;;;;;4862040;29;20053;-58
2022/11/11 07:06:54;;;;;;;6.78;2.63;;;14.50;99.90;;;;;;4861934;29;20046;-58
2022/11/11 07:09:24;;;;;;;8.98;3.10;;;14.50;99.90;;;;;;4860343;29;20055;-59
2022/11/11 07:11:51;;;;;;;9.48;2.75;;;14.50;99.90;;;;;;4861935;29;20049;-58
2022/11/11 07:14:18;;;;;;;9.10;2.53;;;14.60;99.90;;;;;;4862459;29;20045;-59
2022/11/11 07:16:45;;;;;;;9.82;3.08;;;14.60;99.90;;;;;;4861479;29;20542;-58
2022/11/11 07:19:12;;;;;;;7.00;2.90;;;14.60;99.90;;;;;;4862008;29;20479;-58
2022/11/11 07:21:38;;;;;;;8.13;3.30;;;14.60;99.90;;;;;;4861363;29;20049;-58
2022/11/11 07:24:05;;;;;;;10.57;2.97;;;14.60;99.90;;;;;;4861710;29;20050;-58
2022/11/11 07:26:32;;;;;;;7.90;2.75;;;14.60;99.90;;;;;;4861905;29;20054;-57
2022/11/11 07:28:59;;;;;;;6.05;2.47;;;14.60;99.90;;;;;;4860455;29;20530;-58
2022/11/11 07:31:26;;;;;;;13.32;3.03;;;14.70;99.90;;;;;;4861253;29;20041;-59
2022/11/11 07:33:53;;;;;;;34.92;25.35;;;14.70;99.90;;;;;;4844865;29;20098;-59
2022/11/11 07:36:20;;;;;;;12.18;5.28;;;14.70;99.90;;;;;;4861402;29;20041;-61
2022/11/11 07:38:47;;;;;;;9.18;3.28;;;14.70;99.90;;;;;;4861439;29;20463;-61
2022/11/11 07:41:13;;;;;;;9.95;2.80;;;14.70;99.90;;;;;;4860628;29;20049;-60
2022/11/11 07:43:40;;;;;;;11.73;3.45;;;14.70;99.90;;;;;;4859979;29;20102;-60
2022/11/11 07:46:07;;;;;;;14.45;3.53;;;14.70;99.90;;;;;;4860628;29;20049;-60
2022/11/11 07:48:34;;;;;;;15.80;8.52;;;14.70;99.90;;;;;;4861844;29;20053;-58
2022/11/11 07:51:01;;;;;;;14.95;6.50;;;14.70;99.90;;;;;;4861208;29;20042;-60
2022/11/11 07:53:28;;;;;;;10.50;2.65;;;14.80;99.90;;;;;;4844687;29;20101;-57
2022/11/11 07:55:54;;;;;;;13.57;3.17;;;14.80;99.90;;;;;;4861758;29;20054;-61
2022/11/11 07:58:21;;;;;;;7.78;3.17;;;14.80;99.90;;;;;;4860835;29;20094;-61
2022/11/11 08:00:48;;;;;;;10.85;3.45;;;14.80;99.90;;;;;;4859639;29;20053;-61
2022/11/11 08:03:15;;;;;;;9.65;3.10;;;14.80;99.90;;;;;;4859555;29;20055;-60
2022/11/11 08:05:42;;;;;;;10.05;2.78;;;14.90;99.90;;;;;;4861647;29;20057;-62
2022/11/11 08:08:09;;;;;;;7.10;2.83;;;14.90;99.90;;;;;;4862070;29;20121;-61
2022/11/11 08:10:36;;;;;;;14.57;4.45;;;14.90;99.90;;;;;;4844788;29;20101;-61
2022/11/11 08:15:49;;;;;;;11.40;2.65;;;14.90;99.90;;;;;;4861642;29;20081;-62
2022/11/11 08:18:16;;;;;;;9.85;3.50;;;14.90;99.90;;;;;;4860414;29;20443;-67
2022/11/11 08:20:43;;;;;;;8.30;2.85;;;14.90;99.90;;;;;;4860653;29;20102;-66
2022/11/11 08:23:20;;;;;;;10.43;2.90;;;15.00;99.90;;;;;;4845711;29;20541;-68
2022/11/11 08:26:08;;;;;;;15.07;3.72;;;15.00;99.90;;;;;;4859505;29;20128;-69
2022/11/11 08:28:35;;;;;;;12.57;3.03;;;15.00;99.90;;;;;;4859432;29;20045;-66
2022/11/11 08:31:02;;;;;;;9.75;3.58;;;15.10;99.90;;;;;;4860141;29;20423;-67
2022/11/11 08:33:30;;;;;;;43.63;35.83;;;15.10;99.90;;;;;;4859700;29;20049;-65
2022/11/11 08:36:01;;;;;;;47.35;34.75;;;15.10;99.90;;;;;;4859319;29;20046;-66
2022/11/11 08:38:28;;;;;;;28.42;19.95;;;15.10;99.90;;;;;;4860784;29;20136;-65
2022/11/11 08:40:58;;;;;;;8.98;4.50;;;15.20;99.90;;;;;;4859401;29;20081;-65
2022/11/11 08:43:25;;;;;;;11.98;3.50;;;15.30;99.90;;;;;;4859713;29;20049;-67
2022/11/11 08:45:52;;;;;;;14.15;4.65;;;15.20;99.90;;;;;;4860423;29;20482;-64
2022/11/11 08:48:19;;;;;;;13.60;3.90;;;15.20;99.90;;;;;;4860988;29;20053;-65
2022/11/11 08:50:46;;;;;;;14.65;3.75;;;15.20;99.90;;;;;;4860456;29;20045;-64
2022/11/11 08:53:13;;;;;;;10.07;3.05;;;15.20;99.90;;;;;;4859672;29;20053;-65
2022/11/11 08:55:40;;;;;;;9.60;3.05;;;15.20;99.90;;;;;;4860148;29;20046;-65
2022/11/11 08:58:06;;;;;;;12.02;3.97;;;15.20;99.90;;;;;;4860720;29;20054;-64
2022/11/11 09:00:33;;;;;;;13.30;3.33;;;15.20;99.90;;;;;;4863284;29;20120;-61
2022/11/11 09:03:01;;;;;;;11.32;3.53;;;15.20;99.90;;;;;;4862403;29;20054;-66
2022/11/11 09:05:28;;;;;;;9.15;3.47;;;15.20;99.90;;;;;;4862808;29;20058;-67
2022/11/11 09:07:55;;;;;;;11.98;4.53;;;15.10;99.90;;;;;;4862831;29;20560;-67
2022/11/11 09:10:22;;;;;;;12.90;3.78;;;15.10;99.90;;;;;;4862580;29;20409;-66
2022/11/11 09:12:48;;;;;;;12.60;4.25;;;15.00;99.90;;;;;;4862695;29;20557;-66
2022/11/11 09:15:15;;;;;;;12.45;4.45;;;15.00;99.90;;;;;;4862814;29;20049;-68
2022/11/11 09:17:46;;;;;;;12.93;3.83;;;15.00;99.90;;;;;;4864428;29;20053;-70
2022/11/11 09:20:13;;;;;;;12.50;3.40;;;15.00;99.90;;;;;;4863003;29;20121;-65
2022/11/11 09:22:46;;;;;;;10.40;3.10;;;15.00;99.90;;;;;;4863654;29;20139;-66
2022/11/11 09:25:13;;;;;;;12.23;4.20;;;15.00;99.90;;;;;;4862892;29;20121;-67
2022/11/11 09:27:40;;;;;;;15.15;4.30;;;14.90;99.90;;;;;;4862511;29;20045;-74
2022/11/11 09:30:07;;;;;;;10.40;3.35;;;14.90;99.90;;;;;;4862963;29;20081;-71
2022/11/11 09:32:35;;;;;;;7.85;3.28;;;14.90;99.90;;;;;;4865198;29;20057;-72
2022/11/11 09:35:05;;;;;;;12.18;3.50;;;15.00;99.90;;;;;;4862545;29;20046;-70
2022/11/11 09:37:32;;;;;;;7.50;2.78;;;15.00;99.90;;;;;;4862046;29;20049;-66
2022/11/11 09:39:59;;;;;;;14.02;3.30;;;15.00;99.90;;;;;;4863359;29;20049;-62
2022/11/11 09:42:36;;;;;;;12.70;3.92;;;15.10;99.90;;;;;;4863102;29;20046;-69
2022/11/11 09:45:06;;;;;;;11.93;3.35;;;15.10;99.90;;;;;;4862220;29;20083;-68
2022/11/11 09:47:58;;;;;;;6.10;2.75;;;15.10;99.90;;;;;;4863644;29;20045;-64
2022/11/11 09:50:31;;;;;;;11.13;3.03;;;15.20;99.90;;;;;;4863810;29;20124;-67
2022/11/11 09:53:18;;;;;;;10.18;3.50;;;15.20;99.90;;;;;;4861870;29;20049;-69
2022/11/11 09:56:08;;;;;;;6.13;2.80;;;15.30;99.90;;;;;;4862460;29;20101;-66
2022/11/11 09:59:15;;;;;;;13.13;4.32;;;15.40;99.90;;;;;;4863842;29;20045;-70
2022/11/11 10:01:45;;;;;;;9.00;3.53;;;15.50;99.90;;;;;;4861479;29;20045;-65
2022/11/11 10:04:19;;;;;;;11.18;3.35;;;15.60;99.90;;;;;;4861490;29;20512;-63
2022/11/11 10:06:46;;;;;;;9.48;3.10;;;15.70;99.90;;;;;;4863142;29;20041;-79
2022/11/11 10:10:01;;;;;;;9.18;2.88;;;15.70;99.90;;;;;;4861476;29;20149;-72
2022/11/11 10:12:34;;;;;;;12.82;5.68;;;15.80;99.90;;;;;;4805674;29;20232;-72
2022/11/11 10:15:13;;;;;;;10.55;3.50;;;15.90;99.90;;;;;;4860464;29;20049;-67
2022/11/11 10:18:03;;;;;;;10.75;2.75;;;15.90;99.90;;;;;;4861215;29;20061;-69
2022/11/11 10:20:32;;;;;;;10.32;3.33;;;15.90;99.90;;;;;;4863057;29;20053;-69
2022/11/11 10:23:17;;;;;;;7.60;3.40;;;15.90;99.90;;;;;;4861181;29;20053;-66
2022/11/11 10:25:54;;;;;;;12.45;4.32;;;15.90;99.90;;;;;;4863686;29;20105;-65
2022/11/11 10:28:27;;;;;;;11.38;3.63;;;15.80;99.90;;;;;;4861908;29;20109;-72
2022/11/11 10:30:54;;;;;;;8.85;3.22;;;15.90;99.90;;;;;;4860826;29;20438;-63
2022/11/11 10:33:27;;;;;;;9.93;3.55;;;15.90;99.90;;;;;;4862179;29;20050;-67
2022/11/11 10:35:55;;;;;;;11.80;3.45;;;15.90;99.90;;;;;;4861902;29;20054;-68
2022/11/11 10:38:34;;;;;;;13.73;3.60;;;16.00;99.90;;;;;;4862338;29;20102;-66
2022/11/11 10:41:10;;;;;;;;;;;16.00;99.90;;;;;;4863231;29;20350;-69
2022/11/11 10:43:37;;;;;;;11.02;3.15;;;16.00;99.90;;;;;;4861784;29;19970;-64
2022/11/11 10:46:23;;;;;;;8.43;3.08;;;16.00;99.90;;;;;;4860804;29;20049;-66
2022/11/11 10:49:06;;;;;;;9.18;2.85;;;16.00;99.90;;;;;;4860978;29;20105;-70
2022/11/11 10:51:36;;;;;;;9.15;3.28;;;16.00;99.90;;;;;;4860693;29;20049;-66
2022/11/11 10:54:13;;;;;;;11.88;3.13;;;16.00;99.90;;;;;;4861933;29;20119;-75
2022/11/11 10:56:45;;;;;;;8.90;3.92;;;16.10;99.90;;;;;;4860338;29;20553;-63
2022/11/11 10:59:26;;;;;;;7.95;3.65;;;16.00;99.90;;;;;;4860331;29;20042;-68
2022/11/11 11:02:16;;;;;;;14.20;4.30;;;15.90;99.90;;;;;;4860370;29;20089;-54
2022/11/11 11:04:47;;;;;;;12.18;3.70;;;16.00;99.90;;;;;;4861171;29;20109;-62
2022/11/11 11:07:18;;;;;;;11.57;3.70;;;16.20;99.90;;;;;;4846337;29;20053;-68
2022/11/11 11:09:49;;;;;;;8.60;3.20;;;16.30;99.90;;;;;;4860301;29;20045;-70
2022/11/11 11:12:35;;;;;;;10.43;3.13;;;16.40;99.90;;;;;;4861231;29;20049;-67
2022/11/11 11:15:05;;;;;;;12.88;4.28;;;16.40;99.90;;;;;;4860849;29;20427;-66
2022/11/11 11:17:36;;;;;;;9.75;3.78;;;16.40;99.90;;;;;;4860179;29;20102;-68
2022/11/11 11:20:14;;;;;;;6.35;2.42;;;16.50;99.90;;;;;;4862881;29;20042;-59
2022/11/11 11:22:47;;;;;;;8.73;2.45;;;16.50;99.90;;;;;;4861606;29;20049;-61
2022/11/11 11:25:14;;;;;;;10.13;3.15;;;16.50;99.90;;;;;;4862270;29;20308;-73
2022/11/11 11:27:41;;;;;;;6.65;3.08;;;16.60;99.90;;;;;;4860283;29;20435;-60
2022/11/11 11:30:16;;;;;;;11.65;2.72;;;16.70;99.90;;;;;;4861172;29;20128;-70
2022/11/11 11:33:10;;;;;;;7.95;3.10;;;16.70;99.90;;;;;;4859933;29;20053;-71
2022/11/11 11:35:40;;;;;;;9.70;3.13;;;16.80;99.90;;;;;;4859162;29;20129;-68
2022/11/11 11:38:08;;;;;;;7.53;3.17;;;16.70;99.90;;;;;;4861836;29;20052;-70
2022/11/11 11:40:57;;;;;;;10.73;2.85;;;16.60;99.90;;;;;;4844671;29;20102;-68
2022/11/11 11:43:41;;;;;;;7.90;2.65;;;16.60;99.90;;;;;;4860177;29;20065;-71
2022/11/11 11:46:20;;;;;;;10.18;2.92;;;16.60;99.90;;;;;;4860011;29;20093;-77
2022/11/11 11:49:13;;;;;;;13.40;3.25;;;16.50;99.90;;;;;;4860259;29;20105;-69
2022/11/11 11:51:42;;;;;;;12.55;4.95;;;16.50;99.90;;;;;;4860816;29;20374;-68
2022/11/11 11:54:42;;;;;;;12.00;5.80;;;16.40;99.90;;;;;;4859896;29;20050;-69
2022/11/11 11:57:48;;;;;;;8.60;3.08;;;16.40;99.90;;;;;;4859633;29;20048;-69
2022/11/11 12:00:33;;;;;;;10.45;3.42;;;16.40;99.90;;;;;;4861761;29;20041;-64
2022/11/11 12:03:00;;;;;;;10.35;2.63;;;16.50;99.90;;;;;;4859867;29;20093;-62
2022/11/11 12:05:41;;;;;;;8.82;3.38;;;16.40;99.90;;;;;;4862028;29;20050;-61
2022/11/11 12:08:34;;;;;;;12.00;3.25;;;16.40;99.90;;;;;;4844339;29;20088;-64
2022/11/11 12:11:16;;;;;;;9.98;4.57;;;16.40;99.90;;;;;;4859437;29;20106;-62
2022/11/11 12:13:55;;;;;;;16.30;4.72;;;16.30;99.90;;;;;;4860653;29;20041;-64
2022/11/11 12:16:43;;;;;;;10.60;3.33;;;16.40;99.90;;;;;;4860291;29;20049;-67
2022/11/11 12:19:32;;;;;;;7.90;2.70;;;16.40;99.90;;;;;;4859221;29;20435;-61
2022/11/11 12:22:26;;;;;;;7.07;3.08;;;16.40;99.90;;;;;;4859177;29;20799;-61
2022/11/11 12:25:22;;;;;;;8.40;2.90;;;16.50;99.90;;;;;;4861203;29;20121;-62
2022/11/11 12:28:13;;;;;;;8.75;2.97;;;16.40;99.90;;;;;;4861242;29;20080;-64
2022/11/11 12:31:04;;;;;;;7.05;2.47;;;16.30;99.90;;;;;;4859077;29;20053;-61
2022/11/11 12:33:41;;;;;;;8.75;3.58;;;16.20;99.90;;;;;;4860722;29;20049;-63
2022/11/11 12:36:26;;;;;;;10.10;3.03;;;16.10;99.90;;;;;;4862768;29;20453;-61
2022/11/11 12:39:04;;;;;;;13.00;3.05;;;16.10;99.90;;;;;;4865065;29;20050;-60
2022/11/11 12:41:44;;;;;;;16.23;7.15;;;16.10;99.90;;;;;;4864385;29;20042;-62
2022/11/11 12:44:11;;;;;;;22.25;11.73;;;16.10;99.90;;;;;;4865301;29;20064;-67
2022/11/11 12:46:53;;;;;;;17.75;9.68;;;16.10;99.90;;;;;;4863400;29;20086;-60
2022/11/11 12:49:45;;;;;;;13.20;9.32;;;16.10;99.90;;;;;;4864926;29;20053;-60
2022/11/11 12:52:48;;;;;;;24.73;17.45;;;16.10;99.90;;;;;;4865506;29;20113;-61
2022/11/11 12:55:51;;;;;;;22.08;12.32;;;16.10;99.90;;;;;;4834588;29;20053;-61
2022/11/11 12:58:43;;;;;;;8.73;3.45;;;16.10;99.90;;;;;;4863786;29;20435;-65
2022/11/11 13:01:15;;;;;;;9.80;4.75;;;16.10;99.90;;;;;;4863886;29;20049;-62
2022/11/11 13:03:45;;;;;;;8.75;2.92;;;16.00;99.90;;;;;;4862860;29;20132;-61
2022/11/11 13:06:36;;;;;;;8.30;3.75;;;16.00;99.90;;;;;;4863783;29;20105;-66
2022/11/11 13:09:22;;;;;;;9.95;3.72;;;16.10;99.90;;;;;;4862584;29;20046;-62
2022/11/11 13:11:56;;;;;;;9.23;3.03;;;16.10;99.90;;;;;;4863545;29;20045;-64
2022/11/11 13:14:47;;;;;;;8.38;2.55;;;16.10;99.90;;;;;;4862695;29;20517;-61
2022/11/11 13:17:14;;;;;;;11.15;2.67;;;16.00;99.90;;;;;;4863403;29;20102;-66
2022/11/11 13:19:59;;;;;;;8.45;2.92;;;16.00;99.90;;;;;;4865448;29;20052;-61
2022/11/11 13:22:27;;;;;;;9.55;3.13;;;16.00;99.90;;;;;;4866229;29;20087;-62
2022/11/11 13:24:54;;;;;;;5.15;2.17;;;15.90;99.90;;;;;;4866616;29;20120;-63
2022/11/11 13:27:30;;;;;;;7.47;2.63;;;15.80;99.90;;;;;;4866015;29;20131;-61
2022/11/11 13:30:18;;;;;;;6.70;2.50;;;15.80;99.90;;;;;;4865381;29;20049;-62
2022/11/11 13:33:05;;;;;;;9.63;5.17;;;15.70;99.90;;;;;;4865682;29;20101;-60
2022/11/11 13:35:54;;;;;;;8.40;2.92;;;15.70;99.90;;;;;;4866120;29;20053;-61
2022/11/11 13:38:25;;;;;;;;;;;15.70;99.90;;;;;;4883411;29;20124;-61
2022/11/11 13:40:54;;;;;;;5.57;2.50;;;15.60;99.90;;;;;;4865580;29;19920;-61
2022/11/11 13:43:27;;;;;;;6.07;2.17;;;15.60;99.90;;;;;;4866460;29;20354;-61
2022/11/11 13:45:56;;;;;;;9.93;3.17;;;15.60;99.90;;;;;;4866025;29;20089;-66
2022/11/11 13:48:24;;;;;;;8.23;2.37;;;15.60;99.90;;;;;;4865275;29;20091;-65
2022/11/11 13:50:51;;;;;;;8.75;3.55;;;15.60;99.90;;;;;;4881689;29;20477;-60
2022/11/11 13:53:25;;;;;;;12.15;3.03;;;15.50;99.90;;;;;;4881961;29;20040;-61
2022/11/11 13:55:53;;;;;;;16.10;11.38;;;15.50;99.90;;;;;;4865072;29;20100;-60
2022/11/11 13:58:25;;;;;;;321.25;220.70;;;15.50;99.90;;;;;;4881623;29;20048;-63
2022/11/11 14:00:59;;;;;;;72.97;63.75;;;15.50;99.90;;;;;;4865741;29;20390;-60
2022/11/11 14:03:26;;;;;;;26.25;22.05;;;15.50;99.90;;;;;;4882217;29;20101;-60
2022/11/11 14:06:15;;;;;;;13.10;7.93;;;15.40;99.90;;;;;;4881710;29;20052;-60
2022/11/11 14:08:45;;;;;;;14.35;4.80;;;15.40;99.90;;;;;;4881344;29;20133;-60
2022/11/11 14:11:24;;;;;;;8.40;3.60;;;15.40;99.90;;;;;;4881597;29;20052;-60
2022/11/11 14:13:57;;;;;;;7.88;3.25;;;15.40;99.90;;;;;;4882067;29;20097;-60
2022/11/11 14:16:33;;;;;;;9.60;2.40;;;15.40;99.90;;;;;;4865616;29;20045;-60
2022/11/11 14:19:16;;;;;;;8.57;2.17;;;15.40;99.90;;;;;;4864525;29;20489;-60
2022/11/11 14:21:49;;;;;;;9.05;2.25;;;15.40;99.90;;;;;;4881194;29;20041;-60
2022/11/11 14:24:45;;;;;;;54.40;41.90;;;15.30;99.90;;;;;;4881312;29;20551;-60
2022/11/11 14:27:15;;;;;;;10.07;4.37;;;15.40;99.90;;;;;;4882313;29;20052;-60
2022/11/11 14:29:52;;;;;;;6.50;3.13;;;15.30;99.90;;;;;;4866877;29;20283;-61